No 31 Takemaru — JG5731 — position and weather

sailwx.info

Track history (hours):
 
Tides and Currents Weather Stations Pressure Air Temp Water Temp Dewpoint Dewpoint Depression Visibility Wind Speed Wind Dir Waves Ship Positions

No 31 Takemaru

Last reported at 2018-Jun-25 09:30 UTC. Time now 2018-Jun-25 09:34 UTC.
Position N 34°38' E 135°27'.

Length 31 m; draft 2.5 m.

Type: Tug. MMSI: 431000439.

Date/timePositionNaut miles runAvg speedWind from/ knotsBaromVisibWave heightAir tempDewpointWater temp
2018-Jun-25 09:30N 34°38' E 135°27'2 3.1
2018-Jun-25 09:00N 34°39' E 135°25'1 2.1
2018-Jun-25 08:30N 34°39' E 135°24'3 5.6
2018-Jun-25 08:00N 34°39' E 135°27'1 0.2
2018-Jun-25 05:37N 34°39' E 135°28'0 0.0
2018-Jun-25 05:29N 34°39' E 135°28'0 0.0
2018-Jun-24 23:06N 34°39' E 135°28'0 0.1
2018-Jun-24 23:00N 34°39' E 135°28'3 5.8
2018-Jun-24 22:30N 34°40' E 135°25'2 3.9
2018-Jun-24 22:00N 34°38' E 135°24'0 0.1
2018-Jun-24 21:30N 34°38' E 135°24'3 6.0
2018-Jun-24 20:58N 34°39' E 135°27'0 0.9
2018-Jun-24 20:28N 34°39' E 135°28'0 0.0
2018-Jun-24 20:00N 34°39' E 135°28'0 0.0
2018-Jun-24 19:30N 34°39' E 135°28'0 0.0
2018-Jun-24 18:44N 34°39' E 135°28'0 0.0
2018-Jun-24 18:28N 34°39' E 135°28'0 0.0
2018-Jun-24 17:53N 34°39' E 135°28'0 0.0
2018-Jun-24 13:15N 34°39' E 135°28'0 0.0
2018-Jun-24 12:55N 34°39' E 135°28'0 0.0
2018-Jun-24 11:20N 34°39' E 135°28'1 2.9
2018-Jun-24 10:59N 34°39' E 135°27'1 2.2
2018-Jun-24 10:31N 34°39' E 135°26'0 0.3
2018-Jun-24 10:00N 34°39' E 135°26'1 2.4
2018-Jun-24 09:30N 34°39' E 135°27'1 0.2
2018-Jun-24 05:59N 34°39' E 135°28'0 0.0
2018-Jun-23 23:44N 34°39' E 135°28'210.0
2018-Jun-23 23:30N 34°39' E 135°25'510.0
2018-Jun-23 22:59N 34°33' E 135°25'1 2.5
2018-Jun-23 22:30N 34°33' E 135°26'3 5.2
2018-Jun-23 22:00N 34°35' E 135°24'4 8.4
2018-Jun-23 21:30N 34°39' E 135°27'1 1.2
2018-Jun-23 20:46N 34°39' E 135°28'0 0.0
2018-Jun-23 20:30N 34°39' E 135°28'0 0.0
2018-Jun-23 19:58N 34°39' E 135°28'0 0.0
2018-Jun-23 19:30N 34°39' E 135°28'0 0.0
2018-Jun-23 18:50N 34°39' E 135°28'0 0.0
2018-Jun-23 16:56N 34°39' E 135°28'0 0.0
2018-Jun-23 16:30N 34°39' E 135°28'0 0.0
2018-Jun-23 16:00N 34°39' E 135°28'0 0.0
2018-Jun-23 15:30N 34°39' E 135°28'0 0.0
2018-Jun-23 14:54N 34°39' E 135°28'0 0.0
2018-Jun-23 14:30N 34°39' E 135°28'0 0.0
2018-Jun-23 13:44N 34°39' E 135°28'0 0.0
2018-Jun-23 10:48N 34°39' E 135°28'2 6.7
2018-Jun-23 10:30N 34°39' E 135°26'0 0.3
2018-Jun-23 10:00N 34°39' E 135°26'2 2.2
2018-Jun-23 09:04N 34°39' E 135°28'0 0.0
2018-Jun-23 08:59N 34°39' E 135°28'0 0.0
2018-Jun-23 04:48N 34°39' E 135°28'0 0.0
2018-Jun-23 03:18N 34°39' E 135°28'311.0
2018-Jun-23 03:00N 34°38' E 135°24'612.1
2018-Jun-23 02:28N 34°32' E 135°23'1 1.3
2018-Jun-23 01:43N 34°31' E 135°23'1 5.1
2018-Jun-23 01:27N 34°32' E 135°23'1 1.1
2018-Jun-23 00:51N 34°33' E 135°22'0 0.1
2018-Jun-23 00:30N 34°33' E 135°22'3 5.5
2018-Jun-23 00:00N 34°36' E 135°23'5 9.4
2018-Jun-22 23:29N 34°39' E 135°27'1 1.0
2018-Jun-22 22:57N 34°39' E 135°28'0 0.0
2018-Jun-22 22:28N 34°39' E 135°28'0 0.0
2018-Jun-22 22:00N 34°39' E 135°28'0 0.0
2018-Jun-22 21:19N 34°39' E 135°28'0 0.0
2018-Jun-22 20:55N 34°39' E 135°28'0 0.0
2018-Jun-22 17:56N 34°39' E 135°28'0 0.0
2018-Jun-22 14:59N 34°39' E 135°28'0 0.0
2018-Jun-22 10:56N 34°39' E 135°28'0 0.0
2018-Jun-22 09:27N 34°39' E 135°28'0 0.0
2018-Jun-22 07:44N 34°39' E 135°28'0 0.0
2018-Jun-22 07:27N 34°39' E 135°28'0 0.0
2018-Jun-22 06:57N 34°39' E 135°28'3 5.9
2018-Jun-22 06:30N 34°39' E 135°25'510.2
2018-Jun-22 06:00N 34°34' E 135°24'1 1.5
2018-Jun-22 05:30N 34°34' E 135°25'2 4.8
2018-Jun-22 05:00N 34°31' E 135°24'0 0.0
2018-Jun-22 04:30N 34°31' E 135°24'0 0.0
2018-Jun-22 02:30N 34°31' E 135°24'1 1.7
2018-Jun-22 02:00N 34°31' E 135°23'1 1.2
2018-Jun-22 01:30N 34°31' E 135°23'1 1.6
2018-Jun-22 00:59N 34°32' E 135°23'3 6.8
2018-Jun-22 00:30N 34°35' E 135°24'1 1.2
2018-Jun-22 00:00N 34°36' E 135°24'0 0.0
2018-Jun-21 23:30N 34°36' E 135°24'0 0.0
2018-Jun-21 23:00N 34°36' E 135°24'1 2.5
2018-Jun-21 22:30N 34°36' E 135°25'1 1.7
2018-Jun-21 22:00N 34°35' E 135°26'3 5.0
2018-Jun-21 21:29N 34°36' E 135°23'1 1.6
2018-Jun-21 21:00N 34°36' E 135°22'2 4.5
2018-Jun-21 20:30N 34°38' E 135°24'4 0.3
2018-Jun-21 09:46N 34°39' E 135°28'2 8.0
2018-Jun-21 09:30N 34°39' E 135°25'610.9
2018-Jun-21 09:00N 34°34' E 135°24'2 3.8
2018-Jun-21 08:30N 34°32' E 135°24'0 0.9
2018-Jun-21 08:00N 34°31' E 135°24'0 0.0
2018-Jun-21 06:16N 34°31' E 135°24'3 7.5
2018-Jun-21 05:56N 34°33' E 135°26'0 1.1
2018-Jun-21 05:30N 34°33' E 135°25'1 2.3
2018-Jun-21 04:56N 34°34' E 135°24'2 3.1
2018-Jun-21 04:25N 34°33' E 135°26'1 2.5
2018-Jun-21 03:56N 34°33' E 135°24'2 3.5
2018-Jun-21 03:25N 34°34' E 135°22'2 5.5
2018-Jun-21 03:00N 34°36' E 135°24'0 0.0
2018-Jun-21 02:28N 34°36' E 135°24'0 0.0
2018-Jun-21 02:00N 34°36' E 135°24'0 0.7
2018-Jun-21 01:30N 34°36' E 135°24'2 4.3
2018-Jun-21 01:00N 34°34' E 135°25'2 4.7
2018-Jun-21 00:30N 34°33' E 135°22'2 3.0
2018-Jun-20 23:58N 34°33' E 135°20'3 6.6
2018-Jun-20 23:30N 34°36' E 135°22'510.2
2018-Jun-20 22:59N 34°39' E 135°27'1 0.5
2018-Jun-20 21:53N 34°39' E 135°28'0 0.0
2018-Jun-20 21:30N 34°39' E 135°28'0 0.0
2018-Jun-20 09:47N 34°39' E 135°28'310.0
2018-Jun-20 09:30N 34°39' E 135°25'610.6
2018-Jun-20 08:58N 34°33' E 135°24'1 1.8
2018-Jun-20 08:10N 34°32' E 135°24'0 0.1
2018-Jun-20 07:49N 34°32' E 135°24'1 0.1
2018-Jun-20 00:09N 34°31' E 135°24'0 2.8
2018-Jun-19 23:59N 34°31' E 135°23'1 2.0
2018-Jun-19 23:21N 34°32' E 135°23'1 2.6
2018-Jun-19 22:56N 34°33' E 135°22'0 0.1
2018-Jun-19 22:30N 34°33' E 135°22'3 5.8
2018-Jun-19 22:00N 34°36' E 135°23'4 8.7
2018-Jun-19 21:30N 34°39' E 135°27'1 0.1
2018-Jun-19 10:08N 34°39' E 135°28'1 8.6
2018-Jun-19 10:01N 34°39' E 135°27'5 9.4
2018-Jun-19 09:28N 34°35' E 135°23'3 6.4
2018-Jun-19 09:00N 34°33' E 135°26'1 2.2
2018-Jun-19 08:30N 34°33' E 135°24'0 0.3
2018-Jun-19 07:58N 34°33' E 135°25'2 0.6
2018-Jun-19 05:20N 34°32' E 135°24'2 5.2
2018-Jun-19 04:59N 34°33' E 135°26'1 2.2
2018-Jun-19 04:30N 34°33' E 135°24'2 3.2
2018-Jun-19 03:56N 34°34' E 135°22'0 0.5
2018-Jun-19 03:25N 34°34' E 135°23'4 9.9
2018-Jun-19 03:00N 34°38' E 135°24'4 0.4
2018-Jun-18 17:55N 34°39' E 135°28'0 0.0
2018-Jun-18 05:48N 34°39' E 135°28'3 9.6
2018-Jun-18 05:30N 34°39' E 135°24'5 9.6
2018-Jun-18 05:00N 34°34' E 135°24'1 1.0
2018-Jun-18 03:55N 34°33' E 135°25'2 5.3
2018-Jun-18 03:29N 34°33' E 135°22'3 5.6
2018-Jun-18 03:00N 34°34' E 135°19'0 0.5
2018-Jun-18 02:30N 34°34' E 135°19'2 4.9
2018-Jun-18 02:00N 34°36' E 135°21'611.0
2018-Jun-18 01:30N 34°39' E 135°27'1 0.7
2018-Jun-18 00:05N 34°39' E 135°28'1 8.0
2018-Jun-17 23:59N 34°39' E 135°27'5 9.4
2018-Jun-17 23:29N 34°36' E 135°22'0 0.8
2018-Jun-17 23:00N 34°36' E 135°22'510.5
2018-Jun-17 22:29N 34°39' E 135°27'0 0.0
2018-Jun-17 07:48N 34°39' E 135°28'0 0.0
2018-Jun-17 07:25N 34°39' E 135°28'0 0.0
2018-Jun-17 06:16N 34°39' E 135°28'0 0.0
2018-Jun-17 05:57N 34°39' E 135°28'0 0.0
2018-Jun-17 04:27N 34°39' E 135°28'3 6.3
2018-Jun-17 04:00N 34°39' E 135°24'2 3.2
2018-Jun-17 03:28N 34°38' E 135°26'0 0.1
2018-Jun-17 02:58N 34°38' E 135°26'1 0.3
2018-Jun-16 22:56N 34°39' E 135°28'4 8.0
2018-Jun-16 22:30N 34°38' E 135°24'1 1.3
2018-Jun-16 22:00N 34°37' E 135°25'2 3.0
2018-Jun-16 21:28N 34°38' E 135°23'4 8.4
2018-Jun-16 21:00N 34°39' E 135°27'1 0.0
2018-Jun-16 07:47N 34°39' E 135°28'0 0.0
2018-Jun-16 07:29N 34°39' E 135°28'0 0.0
2018-Jun-16 07:00N 34°39' E 135°28'0 0.0
2018-Jun-16 06:29N 34°39' E 135°28'0 0.0
2018-Jun-16 05:59N 34°39' E 135°28'0 0.0
2018-Jun-16 05:30N 34°39' E 135°28'0 0.0
2018-Jun-16 04:54N 34°39' E 135°28'0 0.0
2018-Jun-16 04:31N 34°39' E 135°28'1 2.9
2018-Jun-16 04:00N 34°38' E 135°27'0 0.0
2018-Jun-16 03:30N 34°38' E 135°27'1 1.0
2018-Jun-16 01:59N 34°39' E 135°28'0 0.0
2018-Jun-16 00:54N 34°39' E 135°28'0 0.0
2018-Jun-16 00:15N 34°39' E 135°28'0 0.0
2018-Jun-15 23:58N 34°39' E 135°28'0 0.0
2018-Jun-15 23:28N 34°39' E 135°28'0 0.0
2018-Jun-15 22:57N 34°39' E 135°28'0 0.0
2018-Jun-15 22:11N 34°39' E 135°28'0 0.0
2018-Jun-15 20:56N 34°39' E 135°28'0 0.0
2018-Jun-15 20:30N 34°39' E 135°28'0 0.0
2018-Jun-15 19:59N 34°39' E 135°28'0 0.0
2018-Jun-15 19:26N 34°39' E 135°28'0 0.0
2018-Jun-15 18:57N 34°39' E 135°28'0 0.0
2018-Jun-15 18:28N 34°39' E 135°28'0 0.0
2018-Jun-15 17:53N 34°39' E 135°28'0 0.0
2018-Jun-15 17:23N 34°39' E 135°28'0 0.0
2018-Jun-15 17:00N 34°39' E 135°28'0 0.0
2018-Jun-15 16:30N 34°39' E 135°28'0 0.0
2018-Jun-15 15:58N 34°39' E 135°28'0 0.0
2018-Jun-15 15:12N 34°39' E 135°28'0 0.0
2018-Jun-15 14:58N 34°39' E 135°28'0 0.0
2018-Jun-15 14:27N 34°39' E 135°28'0 0.0
2018-Jun-15 12:33N 34°39' E 135°28'0 0.0
2018-Jun-15 12:23N 34°39' E 135°28'0 0.0
2018-Jun-15 11:56N 34°39' E 135°28'0 0.0
2018-Jun-15 11:14N 34°39' E 135°28'0 0.0
2018-Jun-15 10:53N 34°39' E 135°28'0 0.0
2018-Jun-15 10:29N 34°39' E 135°28'0 0.0
2018-Jun-15 09:51N 34°39' E 135°28'  
Track history (hours):
 
Tides and Currents Weather Stations Pressure Air Temp Water Temp Dewpoint Dewpoint Depression Visibility Wind Speed Wind Dir Waves Ship Positions

No 31 Takemaru

Last reported at 2018-Jun-25 09:30 UTC. Time now 2018-Jun-25 09:34 UTC.
Position N 34°38' E 135°27'.

Length 31 m; draft 2.5 m.

Type: Tug. MMSI: 431000439.

Date/timePositionNaut miles runAvg speedWind from/ knotsBaromVisibWave heightAir tempDewpointWater temp
2018-Jun-25 09:30N 34°38' E 135°27'2 3.1
2018-Jun-25 09:00N 34°39' E 135°25'1 2.1
2018-Jun-25 08:30N 34°39' E 135°24'3 5.6
2018-Jun-25 08:00N 34°39' E 135°27'1 0.2
2018-Jun-25 05:37N 34°39' E 135°28'0 0.0
2018-Jun-25 05:29N 34°39' E 135°28'0 0.0
2018-Jun-24 23:06N 34°39' E 135°28'0 0.1
2018-Jun-24 23:00N 34°39' E 135°28'3 5.8
2018-Jun-24 22:30N 34°40' E 135°25'2 3.9
2018-Jun-24 22:00N 34°38' E 135°24'0 0.1
2018-Jun-24 21:30N 34°38' E 135°24'3 6.0
2018-Jun-24 20:58N 34°39' E 135°27'0 0.9
2018-Jun-24 20:28N 34°39' E 135°28'0 0.0
2018-Jun-24 20:00N 34°39' E 135°28'0 0.0
2018-Jun-24 19:30N 34°39' E 135°28'0 0.0
2018-Jun-24 18:44N 34°39' E 135°28'0 0.0
2018-Jun-24 18:28N 34°39' E 135°28'0 0.0
2018-Jun-24 17:53N 34°39' E 135°28'0 0.0
2018-Jun-24 13:15N 34°39' E 135°28'0 0.0
2018-Jun-24 12:55N 34°39' E 135°28'0 0.0
2018-Jun-24 11:20N 34°39' E 135°28'1 2.9
2018-Jun-24 10:59N 34°39' E 135°27'1 2.2
2018-Jun-24 10:31N 34°39' E 135°26'0 0.3
2018-Jun-24 10:00N 34°39' E 135°26'1 2.4
2018-Jun-24 09:30N 34°39' E 135°27'1 0.2
2018-Jun-24 05:59N 34°39' E 135°28'0 0.0
2018-Jun-23 23:44N 34°39' E 135°28'210.0
2018-Jun-23 23:30N 34°39' E 135°25'510.0
2018-Jun-23 22:59N 34°33' E 135°25'1 2.5
2018-Jun-23 22:30N 34°33' E 135°26'3 5.2
2018-Jun-23 22:00N 34°35' E 135°24'4 8.4
2018-Jun-23 21:30N 34°39' E 135°27'1 1.2
2018-Jun-23 20:46N 34°39' E 135°28'0 0.0
2018-Jun-23 20:30N 34°39' E 135°28'0 0.0
2018-Jun-23 19:58N 34°39' E 135°28'0 0.0
2018-Jun-23 19:30N 34°39' E 135°28'0 0.0
2018-Jun-23 18:50N 34°39' E 135°28'0 0.0
2018-Jun-23 16:56N 34°39' E 135°28'0 0.0
2018-Jun-23 16:30N 34°39' E 135°28'0 0.0
2018-Jun-23 16:00N 34°39' E 135°28'0 0.0
2018-Jun-23 15:30N 34°39' E 135°28'0 0.0
2018-Jun-23 14:54N 34°39' E 135°28'0 0.0
2018-Jun-23 14:30N 34°39' E 135°28'0 0.0
2018-Jun-23 13:44N 34°39' E 135°28'0 0.0
2018-Jun-23 10:48N 34°39' E 135°28'2 6.7
2018-Jun-23 10:30N 34°39' E 135°26'0 0.3
2018-Jun-23 10:00N 34°39' E 135°26'2 2.2
2018-Jun-23 09:04N 34°39' E 135°28'0 0.0
2018-Jun-23 08:59N 34°39' E 135°28'0 0.0
2018-Jun-23 04:48N 34°39' E 135°28'0 0.0
2018-Jun-23 03:18N 34°39' E 135°28'311.0
2018-Jun-23 03:00N 34°38' E 135°24'612.1
2018-Jun-23 02:28N 34°32' E 135°23'1 1.3
2018-Jun-23 01:43N 34°31' E 135°23'1 5.1
2018-Jun-23 01:27N 34°32' E 135°23'1 1.1
2018-Jun-23 00:51N 34°33' E 135°22'0 0.1
2018-Jun-23 00:30N 34°33' E 135°22'3 5.5
2018-Jun-23 00:00N 34°36' E 135°23'5 9.4
2018-Jun-22 23:29N 34°39' E 135°27'1 1.0
2018-Jun-22 22:57N 34°39' E 135°28'0 0.0
2018-Jun-22 22:28N 34°39' E 135°28'0 0.0
2018-Jun-22 22:00N 34°39' E 135°28'0 0.0
2018-Jun-22 21:19N 34°39' E 135°28'0 0.0
2018-Jun-22 20:55N 34°39' E 135°28'0 0.0
2018-Jun-22 17:56N 34°39' E 135°28'0 0.0
2018-Jun-22 14:59N 34°39' E 135°28'0 0.0
2018-Jun-22 10:56N 34°39' E 135°28'0 0.0
2018-Jun-22 09:27N 34°39' E 135°28'0 0.0
2018-Jun-22 07:44N 34°39' E 135°28'0 0.0
2018-Jun-22 07:27N 34°39' E 135°28'0 0.0
2018-Jun-22 06:57N 34°39' E 135°28'3 5.9
2018-Jun-22 06:30N 34°39' E 135°25'510.2
2018-Jun-22 06:00N 34°34' E 135°24'1 1.5
2018-Jun-22 05:30N 34°34' E 135°25'2 4.8
2018-Jun-22 05:00N 34°31' E 135°24'0 0.0
2018-Jun-22 04:30N 34°31' E 135°24'0 0.0
2018-Jun-22 02:30N 34°31' E 135°24'1 1.7
2018-Jun-22 02:00N 34°31' E 135°23'1 1.2
2018-Jun-22 01:30N 34°31' E 135°23'1 1.6
2018-Jun-22 00:59N 34°32' E 135°23'3 6.8
2018-Jun-22 00:30N 34°35' E 135°24'1 1.2
2018-Jun-22 00:00N 34°36' E 135°24'0 0.0
2018-Jun-21 23:30N 34°36' E 135°24'0 0.0
2018-Jun-21 23:00N 34°36' E 135°24'1 2.5
2018-Jun-21 22:30N 34°36' E 135°25'1 1.7
2018-Jun-21 22:00N 34°35' E 135°26'3 5.0
2018-Jun-21 21:29N 34°36' E 135°23'1 1.6
2018-Jun-21 21:00N 34°36' E 135°22'2 4.5
2018-Jun-21 20:30N 34°38' E 135°24'4 0.3
2018-Jun-21 09:46N 34°39' E 135°28'2 8.0
2018-Jun-21 09:30N 34°39' E 135°25'610.9
2018-Jun-21 09:00N 34°34' E 135°24'2 3.8
2018-Jun-21 08:30N 34°32' E 135°24'0 0.9
2018-Jun-21 08:00N 34°31' E 135°24'0 0.0
2018-Jun-21 06:16N 34°31' E 135°24'3 7.5
2018-Jun-21 05:56N 34°33' E 135°26'0 1.1
2018-Jun-21 05:30N 34°33' E 135°25'1 2.3
2018-Jun-21 04:56N 34°34' E 135°24'2 3.1
2018-Jun-21 04:25N 34°33' E 135°26'1 2.5
2018-Jun-21 03:56N 34°33' E 135°24'2 3.5
2018-Jun-21 03:25N 34°34' E 135°22'2 5.5
2018-Jun-21 03:00N 34°36' E 135°24'0 0.0
2018-Jun-21 02:28N 34°36' E 135°24'0 0.0
2018-Jun-21 02:00N 34°36' E 135°24'0 0.7
2018-Jun-21 01:30N 34°36' E 135°24'2 4.3
2018-Jun-21 01:00N 34°34' E 135°25'2 4.7
2018-Jun-21 00:30N 34°33' E 135°22'2 3.0
2018-Jun-20 23:58N 34°33' E 135°20'3 6.6
2018-Jun-20 23:30N 34°36' E 135°22'510.2
2018-Jun-20 22:59N 34°39' E 135°27'1 0.5
2018-Jun-20 21:53N 34°39' E 135°28'0 0.0
2018-Jun-20 21:30N 34°39' E 135°28'0 0.0
2018-Jun-20 09:47N 34°39' E 135°28'310.0
2018-Jun-20 09:30N 34°39' E 135°25'610.6
2018-Jun-20 08:58N 34°33' E 135°24'1 1.8
2018-Jun-20 08:10N 34°32' E 135°24'0 0.1
2018-Jun-20 07:49N 34°32' E 135°24'1 0.1
2018-Jun-20 00:09N 34°31' E 135°24'0 2.8
2018-Jun-19 23:59N 34°31' E 135°23'1 2.0
2018-Jun-19 23:21N 34°32' E 135°23'1 2.6
2018-Jun-19 22:56N 34°33' E 135°22'0 0.1
2018-Jun-19 22:30N 34°33' E 135°22'3 5.8
2018-Jun-19 22:00N 34°36' E 135°23'4 8.7
2018-Jun-19 21:30N 34°39' E 135°27'1 0.1
2018-Jun-19 10:08N 34°39' E 135°28'1 8.6
2018-Jun-19 10:01N 34°39' E 135°27'5 9.4
2018-Jun-19 09:28N 34°35' E 135°23'3 6.4
2018-Jun-19 09:00N 34°33' E 135°26'1 2.2
2018-Jun-19 08:30N 34°33' E 135°24'0 0.3
2018-Jun-19 07:58N 34°33' E 135°25'2 0.6
2018-Jun-19 05:20N 34°32' E 135°24'2 5.2
2018-Jun-19 04:59N 34°33' E 135°26'1 2.2
2018-Jun-19 04:30N 34°33' E 135°24'2 3.2
2018-Jun-19 03:56N 34°34' E 135°22'0 0.5
2018-Jun-19 03:25N 34°34' E 135°23'4 9.9
2018-Jun-19 03:00N 34°38' E 135°24'4 0.4
2018-Jun-18 17:55N 34°39' E 135°28'0 0.0
2018-Jun-18 05:48N 34°39' E 135°28'3 9.6
2018-Jun-18 05:30N 34°39' E 135°24'5 9.6
2018-Jun-18 05:00N 34°34' E 135°24'1 1.0
2018-Jun-18 03:55N 34°33' E 135°25'2 5.3
2018-Jun-18 03:29N 34°33' E 135°22'3 5.6
2018-Jun-18 03:00N 34°34' E 135°19'0 0.5
2018-Jun-18 02:30N 34°34' E 135°19'2 4.9
2018-Jun-18 02:00N 34°36' E 135°21'611.0
2018-Jun-18 01:30N 34°39' E 135°27'1 0.7
2018-Jun-18 00:05N 34°39' E 135°28'1 8.0
2018-Jun-17 23:59N 34°39' E 135°27'5 9.4
2018-Jun-17 23:29N 34°36' E 135°22'0 0.8
2018-Jun-17 23:00N 34°36' E 135°22'510.5
2018-Jun-17 22:29N 34°39' E 135°27'0 0.0
2018-Jun-17 07:48N 34°39' E 135°28'0 0.0
2018-Jun-17 07:25N 34°39' E 135°28'0 0.0
2018-Jun-17 06:16N 34°39' E 135°28'0 0.0
2018-Jun-17 05:57N 34°39' E 135°28'0 0.0
2018-Jun-17 04:27N 34°39' E 135°28'3 6.3
2018-Jun-17 04:00N 34°39' E 135°24'2 3.2
2018-Jun-17 03:28N 34°38' E 135°26'0 0.1
2018-Jun-17 02:58N 34°38' E 135°26'1 0.3
2018-Jun-16 22:56N 34°39' E 135°28'4 8.0
2018-Jun-16 22:30N 34°38' E 135°24'1 1.3
2018-Jun-16 22:00N 34°37' E 135°25'2 3.0
2018-Jun-16 21:28N 34°38' E 135°23'4 8.4
2018-Jun-16 21:00N 34°39' E 135°27'1 0.0
2018-Jun-16 07:47N 34°39' E 135°28'0 0.0
2018-Jun-16 07:29N 34°39' E 135°28'0 0.0
2018-Jun-16 07:00N 34°39' E 135°28'0 0.0
2018-Jun-16 06:29N 34°39' E 135°28'0 0.0
2018-Jun-16 05:59N 34°39' E 135°28'0 0.0
2018-Jun-16 05:30N 34°39' E 135°28'0 0.0
2018-Jun-16 04:54N 34°39' E 135°28'0 0.0
2018-Jun-16 04:31N 34°39' E 135°28'1 2.9
2018-Jun-16 04:00N 34°38' E 135°27'0 0.0
2018-Jun-16 03:30N 34°38' E 135°27'1 1.0
2018-Jun-16 01:59N 34°39' E 135°28'0 0.0
2018-Jun-16 00:54N 34°39' E 135°28'0 0.0
2018-Jun-16 00:15N 34°39' E 135°28'0 0.0
2018-Jun-15 23:58N 34°39' E 135°28'0 0.0
2018-Jun-15 23:28N 34°39' E 135°28'0 0.0
2018-Jun-15 22:57N 34°39' E 135°28'0 0.0
2018-Jun-15 22:11N 34°39' E 135°28'0 0.0
2018-Jun-15 20:56N 34°39' E 135°28'0 0.0
2018-Jun-15 20:30N 34°39' E 135°28'0 0.0
2018-Jun-15 19:59N 34°39' E 135°28'0 0.0
2018-Jun-15 19:26N 34°39' E 135°28'0 0.0
2018-Jun-15 18:57N 34°39' E 135°28'0 0.0
2018-Jun-15 18:28N 34°39' E 135°28'0 0.0
2018-Jun-15 17:53N 34°39' E 135°28'0 0.0
2018-Jun-15 17:23N 34°39' E 135°28'0 0.0
2018-Jun-15 17:00N 34°39' E 135°28'0 0.0
2018-Jun-15 16:30N 34°39' E 135°28'0 0.0
2018-Jun-15 15:58N 34°39' E 135°28'0 0.0
2018-Jun-15 15:12N 34°39' E 135°28'0 0.0
2018-Jun-15 14:58N 34°39' E 135°28'0 0.0
2018-Jun-15 14:27N 34°39' E 135°28'0 0.0
2018-Jun-15 12:33N 34°39' E 135°28'0 0.0
2018-Jun-15 12:23N 34°39' E 135°28'0 0.0
2018-Jun-15 11:56N 34°39' E 135°28'0 0.0
2018-Jun-15 11:14N 34°39' E 135°28'0 0.0
2018-Jun-15 10:53N 34°39' E 135°28'0 0.0
2018-Jun-15 10:29N 34°39' E 135°28'0 0.0
2018-Jun-15 09:51N 34°39' E 135°28'  

Dump ship's entire track history